Laconia, NH

5:39 PM EDT on May 28, 2015 (GMT -0400)
Plymouth | | Change Station
CLOSE
Current Station
Airport
Location: Plymouth,
Elevation: 505 ft
Nearby Weather Stations
Active Advisory: Severe Thunderstorm Watch

Elev 505 ft 43.78 °N, 71.76 °W | Updated 24 minutes ago

Mostly Cloudy
Mostly Cloudy
78 °F
Feels Like 78 °F
N
14
Wind Variable Wind from West
Gusts 22 mph

Today
High -- | Low -- °F
--% Chance of Precip.
Yesterday
High -- | Low -- °F
Precip. -- in
5:09 AM 8:16 PM
Waxing Gibbous, 78% visible
Pressure 30.05 in
Visibility 10.0 miles
Clouds Scattered Clouds 4900 ft
Scattered Clouds 6500 ft
Mostly Cloudy 9000 ft
Dew Point 63 °F
Humidity 60%
Rainfall 0.00 in
Snow Depth Not available.
UV 2 out of 12
Pollen 10.00 out of 12
Air Quality Not available.
Flu Activity Sporadic
METAR K1P1 282115Z AUTO 28012G19KT 10SM SCT049 SCT065 BKN090 26/17 A3005 RMK AO2 LTG DSNT SE T02560173

More Conditions Fewer Conditions

Pressure 30.05 in
Visibility 10.0 miles
Clouds Scattered Clouds 4900 ft
Scattered Clouds 6500 ft
Mostly Cloudy 9000 ft
Dew Point 63 °F
Humidity 60%
Rainfall 0.00 in
Snow Depth Not available.
UV 2 out of 12
Pollen 10.00 out of 12
Air Quality Not available.
Flu Activity Sporadic
METAR K1P1 282115Z AUTO 28012G19KT 10SM SCT049 SCT065 BKN090 26/17 A3005 RMK AO2 LTG DSNT SE T02560173

More Conditions Fewer Conditions

10-Day Weather Forecast

Almanac

Astronomy

May. 28, 2015 Rise Set
Actual Time
Civil Twilight
Nautical Twilight
Astronomical Twilight
Moon
Length of Visible Light
Length of Day
Tomorrow will be .
, % of the Moon is Illuminated

Today's Extremes

State Highs State Lows

Community

WunderPhotos

Upload Photos

1,825,076 photos uploaded!

WunderBlogs® & News

Nearby

Air Quality

  Air Quality AQ Index Pollutant
Not available.

Snow Depth

Station Depth Elevation

Earthquake Activity

City Distance Mag. Time & Date
Minimum magnitude displayed is 2.5.

Coastal Water Temperatures

Place Temperature

Stations

Nearby Weather Stations

Station Location Temp. Windchill Dew Point Humidity Wind Precip. Elev Updated Type
                   
Severe Thunderstorm Watch
Statement as of 5:24 PM EDT on May 28, 2015

Severe Thunderstorm Watch 233 remains in effect until 700 PM EDT

NH
. New Hampshire counties included are

Belknap Carroll Cheshire
Coos Grafton Hillsborough
Merrimack Rockingham Strafford
Sullivan